createdAt,value
2022-12-12T00:01:02.927Z,0.75
2022-12-12T00:06:26.484Z,0.72
2022-12-12T00:11:49.799Z,0.72
2022-12-12T00:17:11.457Z,0.70
2022-12-12T00:22:33.765Z,0.73
2022-12-12T00:27:57.185Z,0.73
2022-12-12T00:33:19.598Z,0.76
2022-12-12T00:38:42.274Z,0.79
2022-12-12T00:44:05.390Z,0.79
2022-12-12T00:49:27.240Z,0.79
2022-12-12T00:54:49.033Z,0.81
2022-12-12T01:00:16.578Z,0.81
2022-12-12T01:05:38.190Z,0.80
2022-12-12T01:11:00.187Z,0.81
2022-12-12T01:16:25.049Z,0.78
2022-12-12T01:21:46.653Z,0.81
2022-12-12T01:27:08.668Z,0.78
2022-12-12T01:32:32.109Z,0.80
2022-12-12T01:37:54.450Z,0.77
2022-12-12T01:43:18.838Z,0.76
2022-12-12T01:48:47.072Z,0.72
2022-12-12T01:54:11.579Z,0.71
2022-12-12T01:59:36.103Z,0.68
2022-12-12T02:05:02.949Z,0.62
2022-12-12T02:10:25.213Z,0.60
2022-12-12T02:15:59.341Z,0.51
2022-12-12T02:21:27.437Z,0.46
2022-12-12T02:27:18.307Z,0.51
2022-12-12T02:32:53.215Z,0.52
2022-12-12T02:38:27.114Z,0.52
2022-12-12T02:44:00.981Z,0.44
2022-12-12T02:49:30.957Z,0.36
2022-12-12T02:54:52.499Z,0.27
2022-12-12T03:00:17.956Z,0.17
2022-12-12T03:06:05.573Z,0.11
2022-12-12T03:11:41.698Z,0.12
2022-12-12T03:17:11.566Z,0.15
2022-12-12T03:22:44.912Z,0.14
2022-12-12T03:28:11.562Z,0.12
2022-12-12T03:33:37.268Z,0.11
2022-12-12T03:39:06.256Z,0.10
2022-12-12T03:44:38.171Z,0.12
2022-12-12T03:50:07.597Z,0.17
2022-12-12T03:55:38.621Z,0.21
2022-12-12T04:01:04.578Z,0.24
2022-12-12T04:06:35.139Z,0.20
2022-12-12T04:12:23.314Z,0.23
2022-12-12T04:17:50.863Z,0.26
2022-12-12T04:23:26.144Z,0.26
2022-12-12T04:28:55.664Z,0.27
2022-12-12T04:34:25.295Z,0.27
2022-12-12T04:39:50.941Z,0.28
2022-12-12T04:45:17.669Z,0.29
2022-12-12T04:50:40.560Z,0.33
2022-12-12T04:56:08.652Z,0.34
2022-12-12T05:01:39.162Z,0.40
2022-12-12T05:07:06.365Z,0.41
2022-12-12T05:12:28.618Z,0.40
2022-12-12T05:17:57.840Z,0.46
2022-12-12T05:23:19.793Z,0.45
2022-12-12T05:28:41.785Z,0.46
2022-12-12T05:34:05.053Z,0.47
2022-12-12T05:39:26.765Z,0.51
2022-12-12T05:44:48.404Z,0.52
2022-12-12T05:50:12.038Z,0.52
2022-12-12T05:55:33.935Z,0.49
2022-12-12T06:01:01.630Z,0.54
2022-12-12T06:06:26.790Z,0.56
2022-12-12T06:11:48.648Z,0.56
2022-12-12T06:17:10.330Z,0.54
2022-12-12T06:22:33.453Z,0.57
2022-12-12T06:27:55.350Z,0.60
2022-12-12T06:33:17.196Z,0.61
2022-12-12T06:38:41.117Z,0.57
2022-12-12T06:44:03.042Z,0.61
2022-12-12T06:49:25.019Z,0.64
2022-12-12T06:54:48.884Z,0.67
2022-12-12T07:00:11.855Z,0.65
2022-12-12T07:05:33.744Z,0.70
2022-12-12T07:10:58.528Z,0.71
2022-12-12T07:16:21.056Z,0.70
2022-12-12T07:21:42.669Z,0.72
2022-12-12T07:27:06.620Z,0.75
2022-12-12T07:32:28.985Z,0.77
2022-12-12T07:37:50.978Z,0.77
2022-12-12T07:43:14.192Z,0.81
2022-12-12T07:48:36.472Z,0.87
2022-12-12T07:53:58.143Z,0.91
2022-12-12T07:59:21.788Z,0.93
2022-12-12T08:04:43.961Z,0.99
2022-12-12T08:10:07.052Z,1.02
2022-12-12T08:15:30.505Z,1.09
2022-12-12T08:20:52.331Z,1.12
2022-12-12T08:26:18.297Z,1.18
2022-12-12T08:31:41.994Z,1.24
2022-12-12T08:37:03.953Z,1.30
2022-12-12T08:42:25.791Z,1.41
2022-12-12T08:47:49.087Z,1.45
2022-12-12T08:53:11.056Z,1.48
2022-12-12T08:58:33.067Z,1.53
2022-12-12T09:03:58.103Z,1.56
2022-12-12T09:09:20.042Z,1.62
2022-12-12T09:14:41.972Z,1.66
2022-12-12T09:20:05.860Z,1.71
2022-12-12T09:25:28.314Z,1.71
2022-12-12T09:30:50.525Z,1.77
2022-12-12T09:36:15.167Z,1.84
2022-12-12T09:41:37.187Z,1.91
2022-12-12T09:47:03.796Z,2.05
2022-12-12T09:52:32.341Z,2.12
2022-12-12T09:58:00.339Z,2.20
2022-12-12T10:03:15.272Z,2.28
2022-12-12T10:08:29.947Z,2.30
2022-12-12T10:13:35.242Z,2.29
2022-12-12T10:18:43.389Z,2.35
2022-12-12T10:23:53.669Z,2.42
2022-12-12T10:29:11.217Z,2.43
2022-12-12T10:34:27.964Z,2.47
2022-12-12T10:39:42.305Z,2.52
2022-12-12T10:45:16.521Z,2.64
2022-12-12T10:50:27.509Z,2.68
2022-12-12T10:55:40.313Z,2.77
2022-12-12T11:00:45.808Z,2.77
2022-12-12T11:05:49.849Z,2.81
2022-12-12T11:11:08.296Z,2.79
2022-12-12T11:16:17.601Z,2.76
2022-12-12T11:21:22.060Z,2.79
2022-12-12T11:26:29.805Z,2.84
2022-12-12T11:31:36.879Z,2.79
2022-12-12T11:36:42.772Z,2.73
2022-12-12T11:42:02.012Z,2.73
2022-12-12T11:47:25.730Z,2.73
2022-12-12T11:52:31.502Z,2.72
2022-12-12T11:58:03.285Z,2.63
2022-12-12T12:03:24.044Z,2.60
2022-12-12T12:08:40.879Z,2.56
2022-12-12T12:14:05.055Z,2.59
2022-12-12T12:19:15.528Z,2.52
2022-12-12T12:24:49.867Z,2.46
2022-12-12T12:30:13.472Z,2.37
2022-12-12T12:35:29.784Z,2.37
2022-12-12T12:40:51.426Z,2.38
2022-12-12T12:46:02.834Z,2.33
2022-12-12T12:51:13.070Z,2.37
2022-12-12T12:56:26.464Z,2.39
2022-12-12T13:01:35.834Z,2.33
2022-12-12T13:06:45.514Z,2.27
2022-12-12T13:11:52.460Z,2.25
2022-12-12T13:17:00.543Z,2.22
2022-12-12T13:22:09.210Z,2.16
2022-12-12T13:27:20.785Z,2.11
2022-12-12T13:32:49.941Z,2.13
2022-12-12T13:37:55.363Z,2.13
2022-12-12T13:43:08.722Z,2.08
2022-12-12T13:48:48.305Z,2.03
2022-12-12T13:54:30.407Z,2.01
2022-12-12T13:59:33.854Z,1.89
2022-12-12T14:04:39.657Z,1.85
2022-12-12T14:09:49.364Z,1.77
2022-12-12T14:14:57.243Z,1.72
2022-12-12T14:20:01.390Z,1.55
2022-12-12T14:25:09.664Z,1.45
2022-12-12T14:30:18.933Z,1.45
2022-12-12T14:35:33.378Z,1.46
2022-12-12T14:40:41.609Z,1.48
2022-12-12T14:45:55.968Z,1.50
2022-12-12T14:51:04.572Z,1.46
2022-12-12T14:56:13.364Z,1.38
2022-12-12T15:01:27.838Z,1.27
2022-12-12T15:06:34.549Z,1.21
2022-12-12T15:11:39.784Z,1.11
2022-12-12T15:16:48.631Z,1.11
2022-12-12T15:21:52.810Z,1.02
2022-12-12T15:26:59.716Z,0.99
2022-12-12T15:32:05.327Z,1.01
2022-12-12T15:37:28.241Z,1.02
2022-12-12T15:42:33.320Z,0.99
2022-12-12T15:47:36.975Z,1.03
2022-12-12T15:52:40.331Z,1.05
2022-12-12T15:57:49.848Z,0.95
2022-12-12T16:03:03.288Z,0.95
2022-12-12T16:08:38.878Z,0.98
2022-12-12T16:13:45.186Z,0.97
2022-12-12T16:18:48.503Z,0.94
2022-12-12T16:23:51.752Z,0.96
2022-12-12T16:28:56.260Z,0.99
2022-12-12T16:34:03.630Z,0.97
2022-12-12T16:39:08.501Z,1.00
2022-12-12T16:44:13.275Z,1.03
2022-12-12T16:49:16.663Z,1.02
2022-12-12T16:54:20.279Z,1.03
2022-12-12T16:59:25.182Z,1.07
2022-12-12T17:04:29.118Z,1.08
2022-12-12T17:09:32.527Z,1.10
2022-12-12T17:14:37.620Z,1.08
2022-12-12T17:19:40.961Z,1.09
2022-12-12T17:24:44.419Z,1.10
2022-12-12T17:29:49.300Z,1.10
2022-12-12T17:34:52.811Z,1.05
2022-12-12T17:39:56.159Z,1.09
2022-12-12T17:45:01.700Z,1.12
2022-12-12T17:50:08.095Z,1.14
2022-12-12T17:55:53.711Z,1.15
2022-12-12T18:01:01.224Z,1.18
2022-12-12T18:06:09.749Z,1.13
2022-12-12T18:11:22.044Z,1.16
2022-12-12T18:16:39.832Z,1.20
2022-12-12T18:22:01.185Z,1.19
2022-12-12T18:27:09.156Z,1.17
2022-12-12T18:32:27.623Z,1.17
2022-12-12T18:43:21.716Z,1.16
2022-12-12T18:48:36.026Z,1.19
2022-12-12T18:53:46.321Z,1.18
2022-12-12T18:58:59.134Z,1.20
2022-12-12T19:04:23.952Z,1.19
2022-12-12T19:09:35.518Z,1.19
2022-12-12T19:20:24.573Z,1.21
2022-12-12T19:25:37.600Z,1.17
2022-12-12T19:30:46.493Z,1.18
2022-12-12T19:35:55.311Z,1.23
2022-12-12T19:41:10.896Z,1.19
2022-12-12T19:46:22.621Z,1.18
2022-12-12T19:51:38.264Z,1.20
2022-12-12T19:56:50.137Z,1.22
2022-12-12T20:01:58.682Z,1.24
2022-12-12T20:07:13.684Z,1.27
2022-12-12T20:12:23.879Z,1.24
2022-12-12T20:17:31.318Z,1.17
2022-12-12T20:22:39.278Z,1.12
2022-12-12T20:28:03.709Z,1.12
2022-12-12T20:33:14.309Z,1.13
2022-12-12T20:38:28.182Z,1.16
2022-12-12T20:43:37.715Z,1.12
2022-12-12T20:49:09.632Z,1.13
2022-12-12T20:54:34.450Z,1.10
2022-12-12T20:59:41.011Z,1.11
2022-12-12T21:04:50.767Z,1.12
2022-12-12T21:10:07.775Z,1.11
2022-12-12T21:15:18.077Z,1.04
2022-12-12T21:20:23.485Z,0.86
2022-12-12T21:25:58.080Z,0.74
2022-12-12T21:36:35.511Z,0.47
2022-12-12T21:41:57.323Z,0.37
2022-12-12T21:47:03.411Z,0.25
2022-12-12T21:52:15.382Z,0.19
2022-12-12T21:57:32.221Z,0.10
2022-12-12T22:02:39.020Z,0.03
2022-12-12T22:07:49.133Z,-0.03
2022-12-12T22:13:13.667Z,-0.09
2022-12-12T22:18:30.033Z,-0.11
2022-12-12T22:23:44.065Z,-0.10
2022-12-12T22:29:01.561Z,-0.12
2022-12-12T22:34:09.591Z,-0.19
2022-12-12T22:39:18.275Z,-0.25
2022-12-12T22:44:27.535Z,-0.31
2022-12-12T22:49:42.828Z,-0.35
2022-12-12T22:54:48.035Z,-0.40
2022-12-12T23:00:01.237Z,-0.45
2022-12-12T23:05:19.936Z,-0.52
2022-12-12T23:10:36.221Z,-0.59
2022-12-12T23:16:03.185Z,-0.67
2022-12-12T23:21:17.224Z,-0.75
2022-12-12T23:26:47.482Z,-0.80
2022-12-12T23:32:00.202Z,-0.87
2022-12-12T23:37:17.989Z,-0.90
2022-12-12T23:42:24.577Z,-0.97
2022-12-12T23:47:53.660Z,-1.05
2022-12-12T23:53:07.573Z,-1.14
2022-12-12T23:58:23.550Z,-1.18
